sensor_id;sensor_type;location;lat;lon;timestamp;P1;durP1;ratioP1;P2;durP2;ratioP2
28007;SDS011;15333;50.010;20.020;2024-01-06T00:00:51;232.43;;;89.97;;
28007;SDS011;15333;50.010;20.020;2024-01-06T00:07:12;252.05;;;92.88;;
28007;SDS011;15333;50.010;20.020;2024-01-06T00:10:14;236.30;;;88.82;;
28007;SDS011;15333;50.010;20.020;2024-01-06T00:13:14;261.88;;;94.97;;
28007;SDS011;15333;50.010;20.020;2024-01-06T00:16:19;381.55;;;107.00;;
28007;SDS011;15333;50.010;20.020;2024-01-06T00:19:20;317.30;;;96.70;;
28007;SDS011;15333;50.010;20.020;2024-01-06T00:22:20;314.63;;;96.18;;
28007;SDS011;15333;50.010;20.020;2024-01-06T00:25:21;275.17;;;98.60;;
28007;SDS011;15333;50.010;20.020;2024-01-06T00:28:22;243.38;;;93.05;;
28007;SDS011;15333;50.010;20.020;2024-01-06T00:31:22;348.63;;;107.97;;
28007;SDS011;15333;50.010;20.020;2024-01-06T00:34:23;379.10;;;105.70;;
28007;SDS011;15333;50.010;20.020;2024-01-06T00:37:24;294.88;;;97.25;;
28007;SDS011;15333;50.010;20.020;2024-01-06T00:40:25;299.45;;;99.68;;
28007;SDS011;15333;50.010;20.020;2024-01-06T00:43:25;353.08;;;101.18;;
28007;SDS011;15333;50.010;20.020;2024-01-06T00:46:26;267.77;;;90.50;;
28007;SDS011;15333;50.010;20.020;2024-01-06T00:49:27;284.60;;;93.38;;
28007;SDS011;15333;50.010;20.020;2024-01-06T00:52:28;239.82;;;86.38;;
28007;SDS011;15333;50.010;20.020;2024-01-06T00:55:28;198.23;;;78.15;;
28007;SDS011;15333;50.010;20.020;2024-01-06T00:58:29;194.00;;;82.07;;
28007;SDS011;15333;50.010;20.020;2024-01-06T01:01:30;172.23;;;73.90;;
28007;SDS011;15333;50.010;20.020;2024-01-06T01:04:30;168.55;;;75.93;;
28007;SDS011;15333;50.010;20.020;2024-01-06T01:07:31;151.25;;;69.15;;
28007;SDS011;15333;50.010;20.020;2024-01-06T01:10:32;155.10;;;69.95;;
28007;SDS011;15333;50.010;20.020;2024-01-06T01:13:32;147.88;;;67.07;;
28007;SDS011;15333;50.010;20.020;2024-01-06T01:16:33;141.30;;;65.13;;
28007;SDS011;15333;50.010;20.020;2024-01-06T01:19:34;130.40;;;62.28;;
28007;SDS011;15333;50.010;20.020;2024-01-06T01:22:35;139.57;;;65.05;;
28007;SDS011;15333;50.010;20.020;2024-01-06T01:25:35;135.77;;;66.00;;
28007;SDS011;15333;50.010;20.020;2024-01-06T01:28:36;135.63;;;64.20;;
28007;SDS011;15333;50.010;20.020;2024-01-06T01:31:37;134.73;;;62.13;;
28007;SDS011;15333;50.010;20.020;2024-01-06T01:34:38;140.15;;;64.93;;
28007;SDS011;15333;50.010;20.020;2024-01-06T01:37:38;137.90;;;63.88;;
28007;SDS011;15333;50.010;20.020;2024-01-06T01:40:39;148.82;;;70.15;;
28007;SDS011;15333;50.010;20.020;2024-01-06T01:43:39;154.75;;;65.95;;
28007;SDS011;15333;50.010;20.020;2024-01-06T01:46:40;137.05;;;62.75;;
28007;SDS011;15333;50.010;20.020;2024-01-06T01:49:41;139.35;;;61.83;;
28007;SDS011;15333;50.010;20.020;2024-01-06T01:52:42;141.90;;;62.45;;
28007;SDS011;15333;50.010;20.020;2024-01-06T01:55:43;145.35;;;65.35;;
28007;SDS011;15333;50.010;20.020;2024-01-06T01:58:44;153.80;;;70.85;;
28007;SDS011;15333;50.010;20.020;2024-01-06T02:01:44;143.43;;;66.95;;
28007;SDS011;15333;50.010;20.020;2024-01-06T02:04:46;136.65;;;64.13;;
28007;SDS011;15333;50.010;20.020;2024-01-06T02:07:47;143.50;;;66.53;;
28007;SDS011;15333;50.010;20.020;2024-01-06T02:10:52;130.40;;;61.97;;
28007;SDS011;15333;50.010;20.020;2024-01-06T02:13:53;133.98;;;62.22;;
28007;SDS011;15333;50.010;20.020;2024-01-06T02:16:54;130.05;;;62.65;;
28007;SDS011;15333;50.010;20.020;2024-01-06T02:19:54;124.35;;;60.95;;
28007;SDS011;15333;50.010;20.020;2024-01-06T02:22:57;125.25;;;60.85;;
28007;SDS011;15333;50.010;20.020;2024-01-06T02:25:59;129.15;;;60.63;;
28007;SDS011;15333;50.010;20.020;2024-01-06T02:29:00;131.40;;;65.68;;
28007;SDS011;15333;50.010;20.020;2024-01-06T02:32:01;141.18;;;68.97;;
28007;SDS011;15333;50.010;20.020;2024-01-06T02:35:02;142.68;;;69.30;;
28007;SDS011;15333;50.010;20.020;2024-01-06T02:38:03;134.85;;;65.32;;
28007;SDS011;15333;50.010;20.020;2024-01-06T02:41:04;132.63;;;65.43;;
28007;SDS011;15333;50.010;20.020;2024-01-06T02:44:05;145.35;;;66.22;;
28007;SDS011;15333;50.010;20.020;2024-01-06T02:47:05;142.23;;;68.43;;
28007;SDS011;15333;50.010;20.020;2024-01-06T02:50:06;145.52;;;68.07;;
28007;SDS011;15333;50.010;20.020;2024-01-06T02:53:07;149.88;;;69.82;;
28007;SDS011;15333;50.010;20.020;2024-01-06T02:56:10;151.07;;;74.35;;
28007;SDS011;15333;50.010;20.020;2024-01-06T02:59:11;141.25;;;74.65;;
28007;SDS011;15333;50.010;20.020;2024-01-06T03:02:12;139.93;;;70.75;;
28007;SDS011;15333;50.010;20.020;2024-01-06T03:05:13;137.63;;;66.93;;
28007;SDS011;15333;50.010;20.020;2024-01-06T03:08:13;128.77;;;64.95;;
28007;SDS011;15333;50.010;20.020;2024-01-06T03:11:14;128.27;;;68.50;;
28007;SDS011;15333;50.010;20.020;2024-01-06T03:14:15;121.40;;;67.65;;
28007;SDS011;15333;50.010;20.020;2024-01-06T03:17:16;125.40;;;68.68;;
28007;SDS011;15333;50.010;20.020;2024-01-06T03:20:16;121.25;;;67.05;;
28007;SDS011;15333;50.010;20.020;2024-01-06T03:23:17;121.25;;;66.47;;
28007;SDS011;15333;50.010;20.020;2024-01-06T03:26:18;119.65;;;66.97;;
28007;SDS011;15333;50.010;20.020;2024-01-06T03:29:19;120.40;;;67.78;;
28007;SDS011;15333;50.010;20.020;2024-01-06T03:32:19;121.63;;;66.93;;
28007;SDS011;15333;50.010;20.020;2024-01-06T03:35:20;122.22;;;66.93;;
28007;SDS011;15333;50.010;20.020;2024-01-06T03:38:20;119.95;;;65.95;;
28007;SDS011;15333;50.010;20.020;2024-01-06T03:41:21;125.28;;;65.80;;
28007;SDS011;15333;50.010;20.020;2024-01-06T03:44:22;124.60;;;66.13;;
28007;SDS011;15333;50.010;20.020;2024-01-06T03:47:23;125.22;;;64.70;;
28007;SDS011;15333;50.010;20.020;2024-01-06T03:50:23;124.20;;;63.78;;
28007;SDS011;15333;50.010;20.020;2024-01-06T03:53:24;124.97;;;64.03;;
28007;SDS011;15333;50.010;20.020;2024-01-06T03:56:25;120.85;;;64.88;;
28007;SDS011;15333;50.010;20.020;2024-01-06T03:59:25;120.05;;;63.60;;
28007;SDS011;15333;50.010;20.020;2024-01-06T04:02:26;127.20;;;69.32;;
28007;SDS011;15333;50.010;20.020;2024-01-06T04:05:29;120.40;;;66.40;;
28007;SDS011;15333;50.010;20.020;2024-01-06T04:08:30;119.25;;;62.47;;
28007;SDS011;15333;50.010;20.020;2024-01-06T04:11:31;115.57;;;61.47;;
28007;SDS011;15333;50.010;20.020;2024-01-06T04:14:31;114.00;;;58.97;;
28007;SDS011;15333;50.010;20.020;2024-01-06T04:17:32;117.15;;;62.97;;
28007;SDS011;15333;50.010;20.020;2024-01-06T04:20:33;111.63;;;62.20;;
28007;SDS011;15333;50.010;20.020;2024-01-06T04:23:34;112.05;;;59.92;;
28007;SDS011;15333;50.010;20.020;2024-01-06T04:26:34;116.00;;;62.05;;
28007;SDS011;15333;50.010;20.020;2024-01-06T04:29:35;127.43;;;63.60;;
28007;SDS011;15333;50.010;20.020;2024-01-06T04:32:36;115.28;;;62.78;;
28007;SDS011;15333;50.010;20.020;2024-01-06T04:35:37;116.43;;;62.50;;
28007;SDS011;15333;50.010;20.020;2024-01-06T04:38:37;121.38;;;66.18;;
28007;SDS011;15333;50.010;20.020;2024-01-06T04:41:38;117.78;;;64.97;;
28007;SDS011;15333;50.010;20.020;2024-01-06T04:44:39;118.55;;;62.75;;
28007;SDS011;15333;50.010;20.020;2024-01-06T04:47:40;115.18;;;64.13;;
28007;SDS011;15333;50.010;20.020;2024-01-06T04:50:40;113.05;;;62.58;;
28007;SDS011;15333;50.010;20.020;2024-01-06T04:53:41;120.72;;;63.38;;
28007;SDS011;15333;50.010;20.020;2024-01-06T04:56:42;116.38;;;66.50;;
28007;SDS011;15333;50.010;20.020;2024-01-06T04:59:43;120.53;;;66.10;;
28007;SDS011;15333;50.010;20.020;2024-01-06T05:02:43;117.20;;;63.60;;
28007;SDS011;15333;50.010;20.020;2024-01-06T05:05:44;119.70;;;63.00;;
28007;SDS011;15333;50.010;20.020;2024-01-06T05:08:45;123.05;;;65.97;;
28007;SDS011;15333;50.010;20.020;2024-01-06T05:11:46;127.45;;;66.35;;
28007;SDS011;15333;50.010;20.020;2024-01-06T05:14:46;131.07;;;68.18;;
28007;SDS011;15333;50.010;20.020;2024-01-06T05:17:47;131.55;;;69.50;;
28007;SDS011;15333;50.010;20.020;2024-01-06T05:20:48;129.15;;;72.82;;
28007;SDS011;15333;50.010;20.020;2024-01-06T05:23:49;127.20;;;68.53;;
28007;SDS011;15333;50.010;20.020;2024-01-06T05:26:49;130.55;;;72.20;;
28007;SDS011;15333;50.010;20.020;2024-01-06T05:29:50;133.77;;;75.00;;
28007;SDS011;15333;50.010;20.020;2024-01-06T05:32:52;128.27;;;70.88;;
28007;SDS011;15333;50.010;20.020;2024-01-06T05:35:52;128.88;;;69.25;;
28007;SDS011;15333;50.010;20.020;2024-01-06T05:38:53;124.70;;;67.05;;
28007;SDS011;15333;50.010;20.020;2024-01-06T05:41:54;129.38;;;68.93;;
28007;SDS011;15333;50.010;20.020;2024-01-06T05:44:54;120.57;;;69.10;;
28007;SDS011;15333;50.010;20.020;2024-01-06T05:47:55;120.47;;;65.43;;
28007;SDS011;15333;50.010;20.020;2024-01-06T05:50:56;116.78;;;64.35;;
28007;SDS011;15333;50.010;20.020;2024-01-06T05:53:57;122.32;;;65.85;;
28007;SDS011;15333;50.010;20.020;2024-01-06T05:56:57;121.03;;;66.00;;
28007;SDS011;15333;50.010;20.020;2024-01-06T05:59:59;120.20;;;64.75;;
28007;SDS011;15333;50.010;20.020;2024-01-06T06:02:59;126.35;;;67.43;;
28007;SDS011;15333;50.010;20.020;2024-01-06T06:06:00;132.65;;;68.20;;
28007;SDS011;15333;50.010;20.020;2024-01-06T06:09:01;127.38;;;72.82;;
28007;SDS011;15333;50.010;20.020;2024-01-06T06:12:02;132.90;;;71.65;;
28007;SDS011;15333;50.010;20.020;2024-01-06T06:15:03;126.07;;;68.72;;
28007;SDS011;15333;50.010;20.020;2024-01-06T06:18:04;133.63;;;72.97;;
28007;SDS011;15333;50.010;20.020;2024-01-06T06:21:06;134.38;;;72.72;;
28007;SDS011;15333;50.010;20.020;2024-01-06T06:24:06;140.23;;;80.30;;
28007;SDS011;15333;50.010;20.020;2024-01-06T06:27:07;131.13;;;72.95;;
28007;SDS011;15333;50.010;20.020;2024-01-06T06:30:08;132.98;;;71.90;;
28007;SDS011;15333;50.010;20.020;2024-01-06T06:33:09;134.80;;;70.88;;
28007;SDS011;15333;50.010;20.020;2024-01-06T06:36:10;126.22;;;67.18;;
28007;SDS011;15333;50.010;20.020;2024-01-06T06:39:11;125.00;;;71.32;;
28007;SDS011;15333;50.010;20.020;2024-01-06T06:42:11;121.18;;;66.80;;
28007;SDS011;15333;50.010;20.020;2024-01-06T06:45:12;128.52;;;72.40;;
28007;SDS011;15333;50.010;20.020;2024-01-06T06:48:13;139.73;;;74.88;;
28007;SDS011;15333;50.010;20.020;2024-01-06T06:51:14;146.93;;;81.30;;
28007;SDS011;15333;50.010;20.020;2024-01-06T06:54:14;143.73;;;77.13;;
28007;SDS011;15333;50.010;20.020;2024-01-06T06:57:16;158.20;;;81.72;;
28007;SDS011;15333;50.010;20.020;2024-01-06T07:00:16;163.13;;;82.32;;
28007;SDS011;15333;50.010;20.020;2024-01-06T07:03:17;159.85;;;89.97;;
28007;SDS011;15333;50.010;20.020;2024-01-06T07:06:18;174.00;;;91.07;;
28007;SDS011;15333;50.010;20.020;2024-01-06T07:09:19;169.13;;;88.82;;
28007;SDS011;15333;50.010;20.020;2024-01-06T07:12:23;161.57;;;85.32;;
28007;SDS011;15333;50.010;20.020;2024-01-06T07:15:24;159.57;;;88.15;;
28007;SDS011;15333;50.010;20.020;2024-01-06T07:18:24;142.05;;;77.70;;
28007;SDS011;15333;50.010;20.020;2024-01-06T07:21:26;141.75;;;77.30;;
28007;SDS011;15333;50.010;20.020;2024-01-06T07:24:27;138.77;;;75.65;;
28007;SDS011;15333;50.010;20.020;2024-01-06T07:27:27;137.38;;;73.88;;
28007;SDS011;15333;50.010;20.020;2024-01-06T07:30:28;130.93;;;70.28;;
28007;SDS011;15333;50.010;20.020;2024-01-06T07:33:29;137.75;;;73.18;;
28007;SDS011;15333;50.010;20.020;2024-01-06T07:36:30;129.10;;;68.30;;
28007;SDS011;15333;50.010;20.020;2024-01-06T07:39:31;140.55;;;76.57;;
28007;SDS011;15333;50.010;20.020;2024-01-06T07:42:31;130.45;;;70.00;;
28007;SDS011;15333;50.010;20.020;2024-01-06T07:45:32;123.55;;;67.93;;
28007;SDS011;15333;50.010;20.020;2024-01-06T07:48:33;117.15;;;63.97;;
28007;SDS011;15333;50.010;20.020;2024-01-06T07:51:33;120.70;;;65.35;;
28007;SDS011;15333;50.010;20.020;2024-01-06T07:54:35;130.68;;;67.82;;
28007;SDS011;15333;50.010;20.020;2024-01-06T07:57:36;122.75;;;66.65;;
28007;SDS011;15333;50.010;20.020;2024-01-06T08:00:36;113.70;;;63.90;;
28007;SDS011;15333;50.010;20.020;2024-01-06T08:03:37;116.00;;;63.50;;
28007;SDS011;15333;50.010;20.020;2024-01-06T08:06:38;108.93;;;59.53;;
28007;SDS011;15333;50.010;20.020;2024-01-06T08:09:38;116.55;;;63.03;;
28007;SDS011;15333;50.010;20.020;2024-01-06T08:12:39;112.90;;;60.88;;
28007;SDS011;15333;50.010;20.020;2024-01-06T08:15:40;115.50;;;60.92;;
28007;SDS011;15333;50.010;20.020;2024-01-06T08:18:41;110.32;;;58.30;;
28007;SDS011;15333;50.010;20.020;2024-01-06T08:21:41;113.30;;;63.53;;
28007;SDS011;15333;50.010;20.020;2024-01-06T08:24:42;106.35;;;58.80;;
28007;SDS011;15333;50.010;20.020;2024-01-06T08:27:43;106.55;;;61.65;;
28007;SDS011;15333;50.010;20.020;2024-01-06T08:30:44;106.40;;;59.80;;
28007;SDS011;15333;50.010;20.020;2024-01-06T08:33:45;101.97;;;57.42;;
28007;SDS011;15333;50.010;20.020;2024-01-06T08:36:45;99.63;;;54.88;;
28007;SDS011;15333;50.010;20.020;2024-01-06T08:39:46;104.97;;;53.92;;
28007;SDS011;15333;50.010;20.020;2024-01-06T08:42:47;97.25;;;53.30;;
28007;SDS011;15333;50.010;20.020;2024-01-06T08:45:48;96.75;;;55.85;;
28007;SDS011;15333;50.010;20.020;2024-01-06T08:48:51;98.20;;;55.10;;
28007;SDS011;15333;50.010;20.020;2024-01-06T08:51:51;98.72;;;53.70;;
28007;SDS011;15333;50.010;20.020;2024-01-06T08:54:52;92.93;;;51.72;;
28007;SDS011;15333;50.010;20.020;2024-01-06T08:57:53;94.20;;;55.17;;
28007;SDS011;15333;50.010;20.020;2024-01-06T09:00:53;101.57;;;55.30;;
28007;SDS011;15333;50.010;20.020;2024-01-06T09:03:54;102.75;;;56.17;;
28007;SDS011;15333;50.010;20.020;2024-01-06T09:06:55;101.95;;;54.10;;
28007;SDS011;15333;50.010;20.020;2024-01-06T09:09:56;101.28;;;54.47;;
28007;SDS011;15333;50.010;20.020;2024-01-06T09:12:56;102.80;;;55.60;;
28007;SDS011;15333;50.010;20.020;2024-01-06T09:15:57;100.53;;;52.50;;
28007;SDS011;15333;50.010;20.020;2024-01-06T09:18:58;99.93;;;54.03;;
28007;SDS011;15333;50.010;20.020;2024-01-06T09:21:58;103.10;;;58.97;;
28007;SDS011;15333;50.010;20.020;2024-01-06T09:24:59;99.00;;;56.70;;
28007;SDS011;15333;50.010;20.020;2024-01-06T09:28:00;105.05;;;58.80;;
28007;SDS011;15333;50.010;20.020;2024-01-06T09:31:01;103.70;;;58.00;;
28007;SDS011;15333;50.010;20.020;2024-01-06T09:34:02;96.80;;;54.00;;
28007;SDS011;15333;50.010;20.020;2024-01-06T09:37:06;102.43;;;58.63;;
28007;SDS011;15333;50.010;20.020;2024-01-06T09:40:08;100.15;;;59.90;;
28007;SDS011;15333;50.010;20.020;2024-01-06T09:43:11;103.07;;;57.60;;
28007;SDS011;15333;50.010;20.020;2024-01-06T09:46:17;97.88;;;58.65;;
28007;SDS011;15333;50.010;20.020;2024-01-06T09:49:22;102.47;;;56.70;;
28007;SDS011;15333;50.010;20.020;2024-01-06T09:52:24;94.18;;;52.50;;
28007;SDS011;15333;50.010;20.020;2024-01-06T09:55:26;103.63;;;54.75;;
28007;SDS011;15333;50.010;20.020;2024-01-06T09:58:27;98.38;;;55.67;;
28007;SDS011;15333;50.010;20.020;2024-01-06T10:01:30;99.38;;;53.50;;
28007;SDS011;15333;50.010;20.020;2024-01-06T10:04:31;98.97;;;56.92;;
28007;SDS011;15333;50.010;20.020;2024-01-06T10:07:31;103.75;;;54.22;;
28007;SDS011;15333;50.010;20.020;2024-01-06T10:10:35;106.32;;;61.00;;
28007;SDS011;15333;50.010;20.020;2024-01-06T10:13:36;104.55;;;57.65;;
28007;SDS011;15333;50.010;20.020;2024-01-06T10:16:40;108.90;;;59.13;;
28007;SDS011;15333;50.010;20.020;2024-01-06T10:19:40;102.13;;;56.25;;
28007;SDS011;15333;50.010;20.020;2024-01-06T10:22:41;117.78;;;62.80;;
28007;SDS011;15333;50.010;20.020;2024-01-06T10:25:42;116.53;;;62.67;;
28007;SDS011;15333;50.010;20.020;2024-01-06T10:28:43;116.72;;;64.32;;
28007;SDS011;15333;50.010;20.020;2024-01-06T10:31:44;100.97;;;54.70;;
28007;SDS011;15333;50.010;20.020;2024-01-06T10:34:45;110.15;;;58.95;;
28007;SDS011;15333;50.010;20.020;2024-01-06T10:37:45;112.63;;;58.42;;
28007;SDS011;15333;50.010;20.020;2024-01-06T10:40:57;114.47;;;58.92;;
28007;SDS011;15333;50.010;20.020;2024-01-06T10:47:02;99.72;;;58.60;;
28007;SDS011;15333;50.010;20.020;2024-01-06T10:50:03;94.43;;;56.08;;
28007;SDS011;15333;50.010;20.020;2024-01-06T10:53:04;94.07;;;52.50;;
28007;SDS011;15333;50.010;20.020;2024-01-06T10:56:06;98.30;;;52.55;;
28007;SDS011;15333;50.010;20.020;2024-01-06T10:59:11;94.97;;;50.15;;
28007;SDS011;15333;50.010;20.020;2024-01-06T11:02:12;98.22;;;54.20;;
28007;SDS011;15333;50.010;20.020;2024-01-06T11:05:13;100.80;;;53.88;;
28007;SDS011;15333;50.010;20.020;2024-01-06T11:08:16;94.25;;;50.33;;
28007;SDS011;15333;50.010;20.020;2024-01-06T11:11:18;95.97;;;52.20;;
28007;SDS011;15333;50.010;20.020;2024-01-06T11:21:02;106.70;;;55.30;;
28007;SDS011;15333;50.010;20.020;2024-01-06T11:24:16;106.18;;;56.05;;
28007;SDS011;15333;50.010;20.020;2024-01-06T11:27:25;100.93;;;53.50;;
28007;SDS011;15333;50.010;20.020;2024-01-06T11:30:31;114.97;;;60.88;;
28007;SDS011;15333;50.010;20.020;2024-01-06T11:33:34;113.50;;;59.53;;
28007;SDS011;15333;50.010;20.020;2024-01-06T11:36:45;105.65;;;57.53;;
28007;SDS011;15333;50.010;20.020;2024-01-06T11:39:47;116.03;;;60.72;;
28007;SDS011;15333;50.010;20.020;2024-01-06T11:42:56;115.97;;;62.55;;
28007;SDS011;15333;50.010;20.020;2024-01-06T11:45:56;104.88;;;56.30;;
28007;SDS011;15333;50.010;20.020;2024-01-06T11:49:00;119.53;;;60.55;;
28007;SDS011;15333;50.010;20.020;2024-01-06T11:52:01;109.88;;;59.03;;
28007;SDS011;15333;50.010;20.020;2024-01-06T11:55:01;112.05;;;59.45;;
28007;SDS011;15333;50.010;20.020;2024-01-06T11:58:02;106.38;;;55.95;;
28007;SDS011;15333;50.010;20.020;2024-01-06T12:01:03;107.60;;;56.05;;
28007;SDS011;15333;50.010;20.020;2024-01-06T12:04:04;98.75;;;51.85;;
28007;SDS011;15333;50.010;20.020;2024-01-06T12:07:07;104.47;;;52.97;;
28007;SDS011;15333;50.010;20.020;2024-01-06T12:10:08;100.55;;;54.25;;
28007;SDS011;15333;50.010;20.020;2024-01-06T12:13:09;96.60;;;50.80;;
28007;SDS011;15333;50.010;20.020;2024-01-06T12:16:11;95.85;;;53.47;;
28007;SDS011;15333;50.010;20.020;2024-01-06T12:19:12;91.00;;;50.10;;
28007;SDS011;15333;50.010;20.020;2024-01-06T12:22:14;94.72;;;52.28;;
28007;SDS011;15333;50.010;20.020;2024-01-06T12:25:15;85.57;;;45.85;;
28007;SDS011;15333;50.010;20.020;2024-01-06T12:28:15;85.38;;;48.20;;
28007;SDS011;15333;50.010;20.020;2024-01-06T12:31:16;88.47;;;47.00;;
28007;SDS011;15333;50.010;20.020;2024-01-06T12:34:20;93.75;;;53.00;;
28007;SDS011;15333;50.010;20.020;2024-01-06T12:37:22;94.93;;;50.90;;
28007;SDS011;15333;50.010;20.020;2024-01-06T12:40:22;93.30;;;54.65;;
28007;SDS011;15333;50.010;20.020;2024-01-06T12:43:23;96.45;;;51.10;;
28007;SDS011;15333;50.010;20.020;2024-01-06T12:46:24;102.20;;;55.30;;
28007;SDS011;15333;50.010;20.020;2024-01-06T12:49:25;102.82;;;54.60;;
28007;SDS011;15333;50.010;20.020;2024-01-06T12:52:25;106.70;;;56.75;;
28007;SDS011;15333;50.010;20.020;2024-01-06T12:55:26;110.25;;;59.05;;
28007;SDS011;15333;50.010;20.020;2024-01-06T12:58:27;110.00;;;60.28;;
28007;SDS011;15333;50.010;20.020;2024-01-06T13:01:28;114.03;;;60.47;;
28007;SDS011;15333;50.010;20.020;2024-01-06T13:04:29;108.55;;;58.88;;
28007;SDS011;15333;50.010;20.020;2024-01-06T13:07:30;107.97;;;59.97;;
28007;SDS011;15333;50.010;20.020;2024-01-06T13:10:30;101.65;;;55.08;;
28007;SDS011;15333;50.010;20.020;2024-01-06T13:13:31;100.07;;;58.78;;
28007;SDS011;15333;50.010;20.020;2024-01-06T13:16:32;99.68;;;52.47;;
28007;SDS011;15333;50.010;20.020;2024-01-06T13:19:33;101.13;;;55.13;;
28007;SDS011;15333;50.010;20.020;2024-01-06T13:22:34;100.47;;;55.00;;
28007;SDS011;15333;50.010;20.020;2024-01-06T13:25:35;98.10;;;52.53;;
28007;SDS011;15333;50.010;20.020;2024-01-06T13:28:35;99.00;;;55.05;;
28007;SDS011;15333;50.010;20.020;2024-01-06T13:31:36;103.03;;;58.47;;
28007;SDS011;15333;50.010;20.020;2024-01-06T13:34:37;110.07;;;59.78;;
28007;SDS011;15333;50.010;20.020;2024-01-06T13:37:38;111.65;;;61.00;;
28007;SDS011;15333;50.010;20.020;2024-01-06T13:40:39;116.95;;;62.63;;
28007;SDS011;15333;50.010;20.020;2024-01-06T13:43:40;119.40;;;63.75;;
28007;SDS011;15333;50.010;20.020;2024-01-06T13:46:40;119.47;;;65.13;;
28007;SDS011;15333;50.010;20.020;2024-01-06T13:49:45;112.38;;;65.30;;
28007;SDS011;15333;50.010;20.020;2024-01-06T13:52:45;116.75;;;66.15;;
28007;SDS011;15333;50.010;20.020;2024-01-06T13:55:46;109.13;;;61.00;;
28007;SDS011;15333;50.010;20.020;2024-01-06T13:58:47;107.18;;;58.33;;
28007;SDS011;15333;50.010;20.020;2024-01-06T14:01:48;107.43;;;58.30;;
28007;SDS011;15333;50.010;20.020;2024-01-06T14:04:49;108.22;;;58.22;;
28007;SDS011;15333;50.010;20.020;2024-01-06T14:07:50;103.75;;;59.17;;
28007;SDS011;15333;50.010;20.020;2024-01-06T14:10:51;113.35;;;58.40;;
28007;SDS011;15333;50.010;20.020;2024-01-06T14:13:54;103.07;;;59.38;;
28007;SDS011;15333;50.010;20.020;2024-01-06T14:16:56;100.72;;;52.80;;
28007;SDS011;15333;50.010;20.020;2024-01-06T14:19:57;98.72;;;55.88;;
28007;SDS011;15333;50.010;20.020;2024-01-06T14:22:58;100.97;;;52.88;;
28007;SDS011;15333;50.010;20.020;2024-01-06T14:25:59;103.57;;;57.60;;
28007;SDS011;15333;50.010;20.020;2024-01-06T14:29:00;114.07;;;59.92;;
28007;SDS011;15333;50.010;20.020;2024-01-06T14:32:01;104.05;;;57.85;;
28007;SDS011;15333;50.010;20.020;2024-01-06T14:35:03;112.80;;;61.20;;
28007;SDS011;15333;50.010;20.020;2024-01-06T14:38:04;115.88;;;61.92;;
28007;SDS011;15333;50.010;20.020;2024-01-06T14:41:06;101.38;;;56.53;;
28007;SDS011;15333;50.010;20.020;2024-01-06T14:44:07;100.35;;;52.90;;
28007;SDS011;15333;50.010;20.020;2024-01-06T14:47:07;105.45;;;58.00;;
28007;SDS011;15333;50.010;20.020;2024-01-06T14:50:08;107.20;;;57.55;;
28007;SDS011;15333;50.010;20.020;2024-01-06T14:53:09;111.45;;;57.13;;
28007;SDS011;15333;50.010;20.020;2024-01-06T14:56:11;105.55;;;54.30;;
28007;SDS011;15333;50.010;20.020;2024-01-06T14:59:11;95.88;;;47.40;;
28007;SDS011;15333;50.010;20.020;2024-01-06T15:02:12;107.80;;;60.35;;
28007;SDS011;15333;50.010;20.020;2024-01-06T15:05:13;116.30;;;59.95;;
28007;SDS011;15333;50.010;20.020;2024-01-06T15:08:14;119.75;;;62.33;;
28007;SDS011;15333;50.010;20.020;2024-01-06T15:11:15;102.93;;;54.70;;
28007;SDS011;15333;50.010;20.020;2024-01-06T15:14:16;110.07;;;57.85;;
28007;SDS011;15333;50.010;20.020;2024-01-06T15:17:17;105.13;;;57.17;;
28007;SDS011;15333;50.010;20.020;2024-01-06T15:20:18;107.07;;;58.60;;
28007;SDS011;15333;50.010;20.020;2024-01-06T15:23:19;97.53;;;55.47;;
28007;SDS011;15333;50.010;20.020;2024-01-06T15:26:21;100.55;;;55.72;;
28007;SDS011;15333;50.010;20.020;2024-01-06T15:29:21;97.93;;;54.10;;
28007;SDS011;15333;50.010;20.020;2024-01-06T15:32:22;81.93;;;45.88;;
28007;SDS011;15333;50.010;20.020;2024-01-06T15:35:23;84.40;;;47.47;;
28007;SDS011;15333;50.010;20.020;2024-01-06T15:38:23;83.95;;;46.80;;
28007;SDS011;15333;50.010;20.020;2024-01-06T15:41:24;82.72;;;44.08;;
28007;SDS011;15333;50.010;20.020;2024-01-06T15:44:25;75.32;;;43.53;;
28007;SDS011;15333;50.010;20.020;2024-01-06T15:47:26;72.72;;;41.85;;
28007;SDS011;15333;50.010;20.020;2024-01-06T15:50:26;72.03;;;42.92;;
28007;SDS011;15333;50.010;20.020;2024-01-06T15:53:27;76.78;;;43.47;;
28007;SDS011;15333;50.010;20.020;2024-01-06T15:56:28;68.00;;;37.05;;
28007;SDS011;15333;50.010;20.020;2024-01-06T15:59:29;69.72;;;37.22;;
28007;SDS011;15333;50.010;20.020;2024-01-06T16:02:30;74.05;;;42.95;;
28007;SDS011;15333;50.010;20.020;2024-01-06T16:05:30;72.68;;;40.22;;
28007;SDS011;15333;50.010;20.020;2024-01-06T16:08:31;68.40;;;37.22;;
28007;SDS011;15333;50.010;20.020;2024-01-06T16:11:32;77.85;;;40.65;;
28007;SDS011;15333;50.010;20.020;2024-01-06T16:14:33;81.40;;;41.95;;
28007;SDS011;15333;50.010;20.020;2024-01-06T16:17:34;83.25;;;43.50;;
28007;SDS011;15333;50.010;20.020;2024-01-06T16:20:35;77.93;;;42.53;;
28007;SDS011;15333;50.010;20.020;2024-01-06T16:23:36;82.50;;;45.65;;
28007;SDS011;15333;50.010;20.020;2024-01-06T16:26:36;83.60;;;45.60;;
28007;SDS011;15333;50.010;20.020;2024-01-06T16:29:38;84.63;;;44.17;;
28007;SDS011;15333;50.010;20.020;2024-01-06T16:32:39;94.30;;;50.30;;
28007;SDS011;15333;50.010;20.020;2024-01-06T16:35:40;85.00;;;46.25;;
28007;SDS011;15333;50.010;20.020;2024-01-06T16:38:42;93.32;;;51.47;;
28007;SDS011;15333;50.010;20.020;2024-01-06T16:41:43;88.30;;;48.13;;
28007;SDS011;15333;50.010;20.020;2024-01-06T16:44:43;88.35;;;46.58;;
28007;SDS011;15333;50.010;20.020;2024-01-06T16:47:44;85.43;;;45.63;;
28007;SDS011;15333;50.010;20.020;2024-01-06T16:50:45;84.53;;;40.30;;
28007;SDS011;15333;50.010;20.020;2024-01-06T16:53:47;79.97;;;42.42;;
28007;SDS011;15333;50.010;20.020;2024-01-06T16:56:48;74.72;;;39.75;;
28007;SDS011;15333;50.010;20.020;2024-01-06T16:59:49;74.50;;;40.42;;
28007;SDS011;15333;50.010;20.020;2024-01-06T17:02:49;74.50;;;38.42;;
28007;SDS011;15333;50.010;20.020;2024-01-06T17:05:50;70.90;;;39.63;;
28007;SDS011;15333;50.010;20.020;2024-01-06T17:08:51;81.30;;;41.60;;
28007;SDS011;15333;50.010;20.020;2024-01-06T17:11:52;78.18;;;41.60;;
28007;SDS011;15333;50.010;20.020;2024-01-06T17:14:52;81.55;;;42.20;;
28007;SDS011;15333;50.010;20.020;2024-01-06T17:17:53;79.07;;;43.20;;
28007;SDS011;15333;50.010;20.020;2024-01-06T17:20:54;86.18;;;44.13;;
28007;SDS011;15333;50.010;20.020;2024-01-06T17:23:54;101.78;;;52.42;;